Terminal Aerodrome Forecast
Issued by NWS Corpus Christi, TX

Home | Current Version | Previous Version | Text Only | Print | Product List | Glossary On
Versions: 1 2 3 4 5 6 7 8 9 10 11 12 13 14 15
000
FTUS44 KCRP 231700
TAFCRP
TAF
KCRP 231728Z 2318/2418 VRB06KT P6SM SCT040 BKN250
     FM232000 14013KT P6SM SCT050 BKN200
     FM240200 16005KT P6SM FEW020 SCT250
     FM240900 VRB02KT 6SM BR FEW015
      TEMPO 2410/2414 4SM BR SCT015
     FM241400 VRB06KT P6SM SCT025=

USA.gov is the U.S. government's official web portal to all federal, state and local government web resources and services.